Terminal Aerodrome Forecast
Issued by NWS Central Illinois

Home | Current Version | Previous Version | Text Only | Print | Product List | Glossary On
Versions: 1 2 3 4 5 6 7 8 9 10 11 12 13
000
FTUS43 KILX 200541
TAFSPI
TAF
KSPI 200541Z 2006/2106 20013KT P6SM BKN250 WS018/24050KT
     FM201400 21009KT P6SM BKN010
     FM201600 21012KT P6SM OVC008
     FM201900 21012KT P6SM OVC012
     FM210000 18006KT 4SM BR VCSH OVC008=

USA.gov is the U.S. government's official web portal to all federal, state and local government web resources and services.